Time;durP1;ratioP1;P1;durP2;ratioP2;P2;SDS_P1;SDS_P2;PMS_P1;PMS_P2;Temp;Humidity;BMP_temperature;BMP_pressure;BME280_temperature;BME280_humidity;BME280_pressure;Samples;Min_cycle;Max_cycle;Signal;HPM_P1;HPM_P2
2022/06/03 00:01:32;;;;;;;16.23;9.07;;;7.90;1.00;;;;;;4966921;28;21129;-51
2022/06/03 00:04:19;;;;;;;14.80;8.50;;;7.80;1.00;;;;;;4968485;28;20473;-51
2022/06/03 00:07:14;;;;;;;19.33;8.83;;;7.90;99.90;;;;;;4965698;28;20446;-51
2022/06/03 00:09:54;;;;;;;13.63;8.23;;;7.80;99.90;;;;;;4926537;28;20893;-51
2022/06/03 00:12:36;;;;;;;10.90;8.00;;;7.80;1.00;;;;;;4964388;28;20511;-51
2022/06/03 00:15:19;;;;;;;13.20;8.30;;;7.80;99.90;;;;;;4961601;28;20939;-50
2022/06/03 00:17:51;;;;;;;13.77;7.47;;;7.80;99.90;;;;;;4960966;28;20468;-51
2022/06/03 00:21:05;;;;;;;18.13;8.30;;;7.70;99.90;;;;;;4965092;28;20518;-52
2022/06/03 00:23:57;;;;;;;13.60;7.97;;;7.60;99.90;;;;;;4961699;28;20993;-51
2022/06/03 00:26:42;;;;;;;11.50;7.60;;;7.60;98.90;;;;;;4967070;28;20424;-51
2022/06/03 00:29:22;;;;;;;12.53;7.90;;;7.50;13.50;;;;;;4965148;28;21320;-51
2022/06/03 00:32:16;;;;;;;15.73;8.83;;;7.50;99.90;;;;;;4963787;28;20423;-52
2022/06/03 00:35:03;;;;;;;21.20;10.07;;;7.40;1.00;;;;;;4958449;28;20448;-51
2022/06/03 00:37:59;;;;;;;10.87;8.67;;;7.40;99.90;;;;;;4965076;28;20439;-51
2022/06/03 00:40:38;;;;;;;17.27;9.37;;;7.40;99.90;;;;;;4961398;28;21069;-51
2022/06/03 00:43:16;;;;;;;15.93;9.20;;;7.40;1.00;;;;;;4963518;28;20428;-52
2022/06/03 00:45:54;;;;;;;17.77;10.13;;;7.40;1.00;;;;;;4968317;28;20527;-52
2022/06/03 00:48:36;;;;;;;12.67;8.90;;;7.40;1.00;;;;;;4958637;28;20899;-51
2022/06/03 00:51:29;;;;;;;15.03;8.87;;;7.40;23.00;;;;;;4961178;28;20485;-51
2022/06/03 00:54:16;;;;;;;12.73;8.67;;;7.40;99.90;;;;;;4962367;28;20468;-51
2022/06/03 00:57:16;;;;;;;24.70;10.90;;;7.30;99.30;;;;;;4967998;28;20438;-51
2022/06/03 00:59:54;;;;;;;17.43;8.63;;;7.30;96.90;;;;;;4933651;28;20555;-52
2022/06/03 01:02:23;;;;;;;20.20;10.60;;;7.30;99.90;;;;;;4962962;28;20435;-52
2022/06/03 01:05:09;;;;;;;15.47;8.73;;;7.30;91.40;;;;;;4965825;28;20456;-52
2022/06/03 01:07:56;;;;;;;16.73;10.40;;;7.20;52.50;;;;;;4963380;28;20531;-50
2022/06/03 01:10:42;;;;;;;18.80;9.73;;;7.20;1.00;;;;;;4962249;28;20447;-51
2022/06/03 01:13:35;;;;;;;17.20;9.80;;;7.20;99.90;;;;;;4962207;28;20436;-52
2022/06/03 01:16:29;;;;;;;18.10;9.43;;;7.20;99.90;;;;;;4965746;28;20447;-52
2022/06/03 01:19:05;;;;;;;17.97;9.33;;;7.20;99.90;;;;;;4962855;28;20472;-51
2022/06/03 01:21:55;;;;;;;14.40;8.97;;;7.10;99.90;;;;;;4956440;28;20433;-51
2022/06/03 01:24:29;;;;;;;16.53;9.97;;;7.10;99.90;;;;;;4967640;28;20514;-51
2022/06/03 01:27:13;;;;;;;17.63;9.60;;;7.10;99.90;;;;;;4969386;28;20439;-51
2022/06/03 01:30:22;;;;;;;16.67;9.70;;;7.00;99.90;;;;;;4965804;28;20770;-52
2022/06/03 01:33:25;;;;;;;17.13;11.03;;;7.00;99.90;;;;;;4961426;28;20506;-52
2022/06/03 01:35:56;;;;;;;24.23;11.33;;;7.10;99.90;;;;;;4970364;28;20768;-52
2022/06/03 01:38:41;;;;;;;13.20;9.67;;;7.10;99.90;;;;;;4973401;28;20464;-52
2022/06/03 01:41:09;;;;;;;22.90;11.47;;;7.10;99.90;;;;;;4969226;28;20432;-52
2022/06/03 01:43:57;;;;;;;18.40;10.87;;;7.10;99.90;;;;;;4964065;28;20454;-51
2022/06/03 01:46:29;;;;;;;20.80;10.40;;;7.00;99.90;;;;;;4967352;28;20414;-52
2022/06/03 01:48:58;;;;;;;20.20;11.33;;;7.00;99.90;;;;;;4964573;28;20443;-51
2022/06/03 01:51:58;;;;;;;18.47;11.67;;;7.00;99.90;;;;;;4970269;28;20484;-51
2022/06/03 01:54:46;;;;;;;20.13;12.50;;;7.00;99.90;;;;;;4962866;28;20770;-52
2022/06/03 01:57:23;;;;;;;19.93;11.23;;;7.00;99.90;;;;;;4967668;28;20527;-52
2022/06/03 02:00:30;;;;;;;15.67;10.10;;;7.00;99.90;;;;;;4967111;28;20543;-51
2022/06/03 02:03:05;;;;;;;18.33;11.33;;;7.00;99.90;;;;;;4968499;28;20451;-52
2022/06/03 02:06:18;;;;;;;25.00;11.80;;;7.00;99.90;;;;;;4968313;28;20427;-52
2022/06/03 02:08:52;;;;;;;20.30;13.07;;;6.90;99.90;;;;;;4924477;29;20450;-51
2022/06/03 02:11:24;;;;;;;22.47;13.90;;;7.00;99.90;;;;;;4927996;29;20516;-52
2022/06/03 02:13:58;;;;;;;19.13;12.63;;;7.00;99.90;;;;;;4953171;28;21681;-52
2022/06/03 02:16:24;;;;;;;24.97;13.20;;;7.00;99.90;;;;;;4967013;28;20535;-52
2022/06/03 02:19:14;;;;;;;21.93;10.77;;;6.90;99.90;;;;;;4962262;28;20456;-52
2022/06/03 02:21:44;;;;;;;18.87;10.73;;;7.00;99.90;;;;;;4961866;28;20228;-52
2022/06/03 02:24:37;;;;;;;27.10;12.30;;;6.90;99.90;;;;;;4960965;28;20424;-52
2022/06/03 02:27:04;;;;;;;15.97;10.83;;;6.80;99.90;;;;;;4961523;28;20765;-52
2022/06/03 02:32:39;;;;;;;17.93;11.70;;;6.70;99.90;;;;;;4967352;28;20495;-51
2022/06/03 02:35:29;;;;;;;23.17;11.70;;;6.70;99.90;;;;;;4961893;28;20487;-52
2022/06/03 02:38:13;;;;;;;23.50;12.80;;;6.60;99.90;;;;;;4967396;28;20515;-51
2022/06/03 02:41:02;;;;;;;21.57;12.70;;;6.60;99.90;;;;;;4965708;28;20505;-52
2022/06/03 02:43:50;;;;;;;19.40;12.60;;;6.60;99.90;;;;;;4965941;28;20447;-52
2022/06/03 02:46:28;;;;;;;23.10;13.53;;;6.60;99.90;;;;;;4966146;28;20494;-52
2022/06/03 02:49:28;;;;;;;20.40;13.07;;;6.60;99.90;;;;;;4968594;28;20988;-52
2022/06/03 02:52:12;;;;;;;26.13;14.17;;;6.70;99.90;;;;;;4961775;28;20986;-52
2022/06/03 02:55:09;;;;;;;22.50;13.70;;;6.70;99.90;;;;;;4965222;28;20449;-51
2022/06/03 02:57:49;;;;;;;24.53;12.60;;;6.70;99.90;;;;;;4969472;28;20575;-51
2022/06/03 03:00:31;;;;;;;22.83;13.73;;;6.70;99.90;;;;;;4971599;28;20436;-52
2022/06/03 03:03:23;;;;;;;17.73;11.77;;;6.70;99.90;;;;;;4967385;28;20830;-52
2022/06/03 03:06:29;;;;;;;21.30;12.37;;;6.70;99.90;;;;;;4966901;28;20429;-52
2022/06/03 03:09:32;;;;;;;21.53;11.80;;;6.60;99.90;;;;;;4969685;28;20451;-52
2022/06/03 03:12:16;;;;;;;20.53;12.50;;;6.60;99.90;;;;;;4959748;28;20437;-52
2022/06/03 03:15:19;;;;;;;24.90;12.50;;;6.50;99.90;;;;;;4969135;28;20432;-52
2022/06/03 03:18:03;;;;;;;20.00;12.50;;;6.50;99.90;;;;;;4969672;28;20510;-52
2022/06/03 03:20:35;;;;;;;19.80;12.43;;;6.60;99.90;;;;;;4969269;28;20427;-52
2022/06/03 03:23:15;;;;;;;22.90;12.63;;;6.60;99.90;;;;;;4962011;28;20460;-52
2022/06/03 03:26:15;;;;;;;27.70;12.47;;;6.60;99.90;;;;;;4967313;28;20464;-51
2022/06/03 03:28:53;;;;;;;21.87;12.77;;;6.60;99.90;;;;;;4966499;28;20472;-52
2022/06/03 03:31:27;;;;;;;21.70;13.07;;;6.60;99.90;;;;;;4966043;28;20539;-52
2022/06/03 03:34:24;;;;;;;20.70;12.03;;;6.60;99.90;;;;;;4965127;28;20818;-52
2022/06/03 03:37:10;;;;;;;23.03;12.80;;;6.60;99.90;;;;;;4964161;28;20516;-52
2022/06/03 03:39:54;;;;;;;22.20;11.53;;;6.60;99.90;;;;;;4966862;28;20931;-51
2022/06/03 03:42:44;;;;;;;22.70;12.90;;;6.60;99.90;;;;;;4969474;28;20441;-52
2022/06/03 03:45:33;;;;;;;18.37;11.30;;;6.60;99.90;;;;;;4968184;28;20502;-52
2022/06/03 03:48:08;;;;;;;19.60;11.70;;;6.60;99.90;;;;;;4966694;28;20434;-52
2022/06/03 03:51:04;;;;;;;23.63;12.40;;;6.60;99.90;;;;;;4963249;28;20538;-51
2022/06/03 03:53:57;;;;;;;25.40;13.50;;;6.60;99.90;;;;;;4977986;28;20543;-52
2022/06/03 03:57:00;;;;;;;27.83;13.27;;;6.60;99.90;;;;;;4959337;28;20441;-52
2022/06/03 03:59:54;;;;;;;21.33;12.13;;;6.70;99.90;;;;;;4963678;28;20933;-51
2022/06/03 04:02:57;;;;;;;21.33;12.30;;;6.70;99.90;;;;;;4964893;28;20449;-52
2022/06/03 04:05:51;;;;;;;21.20;13.77;;;6.80;99.90;;;;;;4964422;28;20451;-51
2022/06/03 04:08:44;;;;;;;18.63;12.53;;;6.80;99.90;;;;;;4969637;28;20995;-52
2022/06/03 04:11:52;;;;;;;19.07;13.37;;;6.90;99.90;;;;;;4957536;28;20837;-51
2022/06/03 04:14:36;;;;;;;21.53;14.17;;;7.00;99.90;;;;;;4962385;28;20445;-51
2022/06/03 04:17:23;;;;;;;21.53;14.20;;;7.10;99.90;;;;;;4964661;28;20495;-51
2022/06/03 04:20:12;;;;;;;25.10;14.00;;;7.20;99.90;;;;;;4966734;28;20475;-52
2022/06/03 04:22:59;;;;;;;21.60;13.70;;;7.30;99.90;;;;;;4968028;28;20444;-52
2022/06/03 04:25:44;;;;;;;34.10;16.27;;;7.40;99.90;;;;;;4965169;28;20428;-51
2022/06/03 04:28:39;;;;;;;26.87;17.53;;;7.50;99.90;;;;;;4960460;28;20994;-53
2022/06/03 04:31:42;;;;;;;30.20;16.17;;;7.70;99.90;;;;;;4917548;28;20439;-52
2022/06/03 04:34:28;;;;;;;34.13;17.03;;;8.00;99.90;;;;;;4958354;28;20450;-49
2022/06/03 04:37:24;;;;;;;25.23;16.40;;;8.20;99.90;;;;;;4956380;28;20447;-52
2022/06/03 04:40:14;;;;;;;29.73;18.33;;;8.50;99.90;;;;;;4968418;28;20915;-51
2022/06/03 04:42:52;;;;;;;26.13;17.47;;;8.90;99.90;;;;;;4965203;28;20440;-52
2022/06/03 04:45:39;;;;;;;30.70;17.50;;;9.20;99.90;;;;;;4964782;28;20444;-52
2022/06/03 04:48:25;;;;;;;33.40;18.57;;;9.40;99.90;;;;;;4965540;28;20444;-52
2022/06/03 04:51:12;;;;;;;30.07;17.30;;;9.70;99.90;;;;;;4956990;28;20527;-52
2022/06/03 04:54:09;;;;;;;25.40;16.60;;;9.90;99.90;;;;;;4960789;28;20492;-52
2022/06/03 04:56:52;;;;;;;27.23;17.13;;;10.20;99.90;;;;;;4953386;28;20444;-50
2022/06/03 04:59:41;;;;;;;36.00;15.70;;;10.40;99.90;;;;;;4963554;28;20814;-49
2022/06/03 05:02:19;;;;;;;26.07;15.90;;;10.60;99.90;;;;;;4961950;28;20911;-48
2022/06/03 05:05:00;;;;;;;24.83;16.53;;;10.80;99.90;;;;;;4963606;28;20471;-49
2022/06/03 05:07:25;;;;;;;29.60;17.37;;;11.00;99.90;;;;;;4966065;28;21006;-49
2022/06/03 05:10:21;;;;;;;29.00;16.00;;;11.20;99.90;;;;;;4963313;28;20420;-50
2022/06/03 05:13:18;;;;;;;27.80;15.30;;;11.40;99.90;;;;;;4966132;28;20216;-49
2022/06/03 05:15:47;;;;;;;20.67;14.63;;;11.70;99.90;;;;;;4965053;28;20488;-49
2022/06/03 05:18:24;;;;;;;28.07;16.23;;;11.90;99.90;;;;;;4965449;28;20463;-49
2022/06/03 05:21:09;;;;;;;26.77;14.70;;;12.10;99.90;;;;;;4957731;28;20900;-49
2022/06/03 05:23:59;;;;;;;22.30;13.43;;;12.40;99.90;;;;;;4968331;28;20460;-48
2022/06/03 05:26:40;;;;;;;29.33;14.97;;;12.60;99.90;;;;;;4958501;28;20430;-50
2022/06/03 05:29:44;;;;;;;22.03;14.33;;;12.80;99.90;;;;;;4961949;28;20444;-47
2022/06/03 05:32:46;;;;;;;28.70;14.97;;;13.00;99.90;;;;;;4966823;28;20498;-47
2022/06/03 05:35:45;;;;;;;22.33;13.30;;;13.20;1.00;;;;;;4954769;28;20467;-46
2022/06/03 05:38:29;;;;;;;22.60;13.57;;;13.40;1.00;;;;;;4962684;28;20472;-47
2022/06/03 05:41:06;;;;;;;19.50;12.43;;;13.50;99.90;;;;;;4959175;28;20437;-46
2022/06/03 05:43:46;;;;;;;14.93;12.27;;;13.70;99.90;;;;;;4983578;28;20436;-46
2022/06/03 05:46:27;;;;;;;16.10;12.40;;;14.00;99.90;;;;;;4967400;28;20437;-47
2022/06/03 05:49:07;;;;;;;15.00;11.03;;;14.10;99.90;;;;;;4959835;28;20452;-46
2022/06/03 05:52:06;;;;;;;15.00;10.67;;;14.40;99.90;;;;;;4958142;28;20484;-46
2022/06/03 05:54:46;;;;;;;16.47;11.27;;;14.60;99.90;;;;;;4958188;28;20460;-47
2022/06/03 05:57:36;;;;;;;20.47;10.40;;;14.80;99.90;;;;;;4963591;28;20460;-46
2022/06/03 06:00:10;;;;;;;17.53;10.00;;;15.00;99.90;;;;;;4959151;28;20484;-45
2022/06/03 06:03:14;;;;;;;14.93;10.47;;;15.20;99.90;;;;;;4964668;28;20441;-47
2022/06/03 06:06:18;;;;;;;14.23;9.90;;;15.50;99.90;;;;;;4945192;28;20894;-47
2022/06/03 06:09:17;;;;;;;17.37;11.33;;;15.70;99.90;;;;;;4957701;28;20548;-47
2022/06/03 06:12:13;;;;;;;15.67;9.90;;;15.90;99.90;;;;;;4957460;28;20444;-46
2022/06/03 06:14:54;;;;;;;13.50;9.60;;;16.10;99.90;;;;;;4970298;28;20445;-47
2022/06/03 06:17:42;;;;;;;17.27;10.50;;;16.10;99.90;;;;;;4968987;28;20440;-46
2022/06/03 06:20:40;;;;;;;16.20;11.03;;;16.20;99.90;;;;;;4969767;28;20443;-47
2022/06/03 06:23:18;;;;;;;13.73;9.90;;;16.40;99.90;;;;;;4955312;28;20448;-46
2022/06/03 06:26:12;;;;;;;12.53;9.63;;;16.70;99.90;;;;;;4968103;28;20440;-47
2022/06/03 06:29:02;;;;;;;16.80;10.80;;;16.90;99.90;;;;;;4961889;28;20434;-47
2022/06/03 06:31:33;;;;;;;13.93;10.50;;;17.10;99.90;;;;;;4966283;28;20912;-47
2022/06/03 06:34:11;;;;;;;12.60;10.37;;;17.30;99.90;;;;;;4965343;28;20425;-46
2022/06/03 06:36:58;;;;;;;13.97;10.90;;;17.40;99.90;;;;;;4961947;28;20428;-46
2022/06/03 06:39:42;;;;;;;16.43;11.17;;;17.40;99.90;;;;;;4961768;28;20580;-47
2022/06/03 06:42:32;;;;;;;15.37;10.40;;;17.50;99.90;;;;;;4966591;28;20436;-46
2022/06/03 06:45:27;;;;;;;17.03;11.47;;;17.70;99.90;;;;;;4967570;28;20437;-47
2022/06/03 06:48:12;;;;;;;23.37;11.33;;;17.70;99.90;;;;;;4967337;28;20834;-46
2022/06/03 06:51:03;;;;;;;17.80;12.10;;;17.70;99.90;;;;;;4965056;28;20607;-47
2022/06/03 06:54:05;;;;;;;22.00;11.47;;;17.70;99.90;;;;;;4958635;28;20441;-48
2022/06/03 06:56:48;;;;;;;14.80;10.80;;;17.80;99.90;;;;;;4930990;28;20521;-47
2022/06/03 06:59:23;;;;;;;20.30;11.70;;;18.10;99.90;;;;;;4960379;28;20507;-48
2022/06/03 07:01:56;;;;;;;16.77;10.10;;;18.10;99.90;;;;;;4969416;28;20515;-48
2022/06/03 07:04:29;;;;;;;25.73;10.30;;;18.10;99.90;;;;;;4968197;28;20426;-47
2022/06/03 07:07:22;;;;;;;13.83;8.87;;;18.30;99.90;;;;;;4967576;28;20444;-45
2022/06/03 07:10:05;;;;;;;12.57;9.10;;;18.50;99.90;;;;;;4958363;28;21018;-46
2022/06/03 07:12:44;;;;;;;12.70;10.40;;;18.80;99.90;;;;;;4961972;28;20835;-46
2022/06/03 07:15:20;;;;;;;16.93;9.00;;;19.10;99.90;;;;;;4960100;28;20432;-45
2022/06/03 07:21:02;;;;;;;14.60;9.67;;;19.60;99.90;;;;;;4964076;28;20874;-46
2022/06/03 07:23:43;;;;;;;15.53;8.70;;;19.60;99.90;;;;;;4967336;28;20499;-46
2022/06/03 07:26:33;;;;;;;17.20;10.27;;;19.80;99.90;;;;;;4958712;28;20496;-46
2022/06/03 07:29:15;;;;;;;13.33;9.57;;;20.10;99.90;;;;;;4956911;28;20448;-46
2022/06/03 07:32:19;;;;;;;20.30;10.23;;;20.30;99.90;;;;;;4962685;28;20448;-46
2022/06/03 07:34:59;;;;;;;16.60;9.40;;;20.40;99.90;;;;;;4926156;28;20449;-46
2022/06/03 07:37:38;;;;;;;16.67;9.90;;;20.70;99.90;;;;;;4967906;28;20467;-46
2022/06/03 07:40:27;;;;;;;14.40;9.37;;;20.40;99.90;;;;;;4961103;28;20456;-46
2022/06/03 07:43:14;;;;;;;16.33;8.60;;;20.00;99.90;;;;;;4960904;28;21163;-47
2022/06/03 07:45:55;;;;;;;17.60;7.97;;;20.30;99.90;;;;;;4964328;28;20769;-46
2022/06/03 07:48:25;;;;;;;13.73;7.47;;;20.60;99.90;;;;;;4960530;28;20436;-46
2022/06/03 07:51:26;;;;;;;14.90;8.53;;;20.60;99.90;;;;;;4967418;28;20538;-47
2022/06/03 07:54:11;;;;;;;13.77;8.43;;;20.70;99.90;;;;;;4962381;28;21003;-46
2022/06/03 07:56:37;;;;;;;13.43;7.43;;;20.80;99.90;;;;;;4963378;28;20789;-46
2022/06/03 07:59:19;;;;;;;11.57;7.80;;;20.80;99.90;;;;;;4960005;28;20471;-46
2022/06/03 08:01:59;;;;;;;12.63;8.03;;;21.00;99.90;;;;;;4964958;28;20446;-46
2022/06/03 08:04:28;;;;;;;16.10;8.10;;;21.40;99.90;;;;;;4959744;28;20872;-47
2022/06/03 08:12:31;;;;;;;11.90;7.20;;;22.20;99.90;;;;;;4966083;28;20427;-47
2022/06/03 08:14:57;;;;;;;8.43;6.33;;;22.40;99.90;;;;;;4965628;28;20447;-47
2022/06/03 08:17:25;;;;;;;11.77;5.93;;;22.60;99.90;;;;;;4967479;28;20449;-47
2022/06/03 08:19:53;;;;;;;10.13;6.43;;;22.90;99.90;;;;;;4964936;28;20221;-46
2022/06/03 08:22:23;;;;;;;13.87;7.30;;;23.00;99.90;;;;;;4961034;28;20496;-47
2022/06/03 08:24:56;;;;;;;27.93;16.33;;;23.00;99.90;;;;;;4958906;28;20438;-47
2022/06/03 08:27:26;;;;;;;20.93;11.10;;;23.10;99.90;;;;;;4968657;28;20417;-47
2022/06/03 08:30:10;;;;;;;13.70;5.57;;;23.50;99.90;;;;;;4959046;28;20908;-47
2022/06/03 08:32:44;;;;;;;7.23;5.27;;;23.30;99.90;;;;;;4965898;28;20760;-47
2022/06/03 08:35:15;;;;;;;8.90;4.53;;;23.10;99.90;;;;;;4953135;28;20440;-46
2022/06/03 08:37:54;;;;;;;8.50;4.93;;;23.20;99.90;;;;;;4964467;28;20477;-46
2022/06/03 08:40:39;;;;;;;10.23;5.10;;;23.40;99.90;;;;;;4968204;28;21108;-46
2022/06/03 08:43:12;;;;;;;11.27;4.73;;;23.30;99.90;;;;;;4963780;28;20425;-46
2022/06/03 08:46:04;;;;;;;7.50;4.00;;;23.60;99.90;;;;;;4958260;28;20478;-46
2022/06/03 08:48:35;;;;;;;6.37;3.53;;;23.40;99.90;;;;;;4961352;28;20436;-46
2022/06/03 08:51:07;;;;;;;5.80;3.73;;;23.30;99.90;;;;;;4963892;28;20981;-46
2022/06/03 08:53:39;;;;;;;8.77;3.47;;;23.60;99.90;;;;;;4961209;28;20424;-46
2022/06/03 08:56:16;;;;;;;5.40;3.07;;;23.90;99.90;;;;;;4961591;28;21173;-46
2022/06/03 08:58:50;;;;;;;5.40;3.70;;;24.10;99.90;;;;;;4966284;28;20475;-46
2022/06/03 09:01:28;;;;;;;5.50;3.63;;;24.30;99.90;;;;;;4963298;28;20412;-46
2022/06/03 09:04:06;;;;;;;5.30;3.10;;;24.50;99.90;;;;;;4963892;28;20468;-46
2022/06/03 09:06:41;;;;;;;7.60;3.63;;;24.20;99.90;;;;;;4964716;28;20853;-46
2022/06/03 09:09:17;;;;;;;6.93;3.57;;;24.30;99.90;;;;;;4963142;28;20432;-46
2022/06/03 09:12:04;;;;;;;4.70;3.03;;;24.20;99.90;;;;;;4958150;28;20422;-46
2022/06/03 09:14:31;;;;;;;7.90;3.20;;;24.10;99.90;;;;;;4967081;28;20451;-46
2022/06/03 09:17:11;;;;;;;7.40;3.50;;;24.10;99.90;;;;;;4969348;28;20429;-46
2022/06/03 09:19:42;;;;;;;4.53;2.87;;;24.20;99.90;;;;;;4966158;28;20472;-46
2022/06/03 09:22:19;;;;;;;6.00;2.60;;;24.40;99.90;;;;;;4962685;28;20921;-46
2022/06/03 09:24:45;;;;;;;5.33;3.23;;;24.70;99.90;;;;;;4963903;28;20766;-47
2022/06/03 09:27:16;;;;;;;3.77;2.90;;;25.00;99.90;;;;;;4962534;28;20428;-46
2022/06/03 09:29:51;;;;;;;6.67;3.17;;;24.90;99.90;;;;;;4963400;28;20186;-46
2022/06/03 09:32:19;;;;;;;8.10;3.03;;;24.80;99.90;;;;;;4959224;28;20432;-47
2022/06/03 09:34:51;;;;;;;9.00;3.07;;;24.80;99.90;;;;;;4963881;28;20428;-47
2022/06/03 09:37:29;;;;;;;5.40;3.10;;;25.00;99.90;;;;;;4958642;28;20439;-46
2022/06/03 09:39:55;;;;;;;4.40;2.33;;;25.40;99.90;;;;;;4958033;28;20994;-47
2022/06/03 09:42:22;;;;;;;4.10;2.77;;;25.40;99.90;;;;;;4958778;28;20428;-46
2022/06/03 09:44:50;;;;;;;5.40;2.43;;;25.40;99.90;;;;;;4960354;28;20421;-47
2022/06/03 09:47:18;;;;;;;9.33;2.80;;;25.60;99.90;;;;;;4958419;28;20930;-47
2022/06/03 09:49:46;;;;;;;4.43;2.00;;;25.80;99.90;;;;;;4966456;28;20476;-47
2022/06/03 09:52:15;;;;;;;6.37;2.57;;;26.20;99.90;;;;;;4960129;28;20456;-48
2022/06/03 09:54:43;;;;;;;2.20;2.00;;;26.30;99.90;;;;;;4967940;28;20452;-47
2022/06/03 09:57:14;;;;;;;66.10;45.50;;;26.40;99.90;;;;;;4963919;28;20432;-48
2022/06/03 09:59:52;;;;;;;20.70;12.33;;;26.50;99.90;;;;;;4966835;28;20498;-47
2022/06/03 10:02:17;;;;;;;5.70;2.10;;;26.60;99.90;;;;;;4964003;28;20586;-46
2022/06/03 10:04:43;;;;;;;4.10;2.00;;;26.80;99.90;;;;;;4960597;28;21002;-47
2022/06/03 10:07:09;;;;;;;3.83;2.37;;;26.90;99.90;;;;;;4967658;28;20770;-47
2022/06/03 10:12:49;;;;;;;1.90;1.80;;;26.70;99.90;;;;;;4962289;28;20199;-47
2022/06/03 10:15:43;;;;;;;7.23;2.60;;;26.70;99.90;;;;;;4958439;28;20457;-46
2022/06/03 10:18:14;;;;;;;4.87;2.23;;;26.60;99.90;;;;;;4962226;28;20531;-47
2022/06/03 10:20:40;;;;;;;6.13;2.20;;;26.70;99.90;;;;;;4961478;28;20429;-46
2022/06/03 10:23:10;;;;;;;4.23;1.90;;;26.90;99.90;;;;;;4966613;28;20444;-46
2022/06/03 10:25:46;;;;;;;3.37;2.07;;;26.80;99.90;;;;;;4967644;28;20920;-46
2022/06/03 10:28:13;;;;;;;3.17;1.90;;;26.70;99.90;;;;;;4966670;28;20425;-48
2022/06/03 10:30:41;;;;;;;7.03;2.60;;;27.00;99.90;;;;;;4966319;28;20444;-47
2022/06/03 10:33:18;;;;;;;2.57;1.77;;;27.10;99.90;;;;;;4961436;28;21510;-47
2022/06/03 10:35:46;;;;;;;2.43;2.00;;;27.50;99.90;;;;;;4968716;28;20433;-47
2022/06/03 10:38:16;;;;;;;4.77;1.90;;;27.80;99.90;;;;;;4961019;28;20485;-46
2022/06/03 10:40:44;;;;;;;7.70;2.30;;;27.50;99.90;;;;;;4965577;28;20480;-47
2022/06/03 10:43:11;;;;;;;3.60;1.97;;;27.70;99.90;;;;;;4965852;28;20441;-46
2022/06/03 10:45:38;;;;;;;3.93;1.97;;;27.70;99.90;;;;;;4965717;28;20512;-47
2022/06/03 10:48:22;;;;;;;3.33;2.07;;;27.60;99.90;;;;;;4961487;28;20428;-47
2022/06/03 10:50:48;;;;;;;6.23;2.10;;;27.90;99.90;;;;;;4966708;28;20606;-47
2022/06/03 11:01:58;;;;;;;2.20;1.57;;;28.20;99.90;;;;;;4964434;28;20468;-47
2022/06/03 11:04:38;;;;;;;3.73;2.13;;;28.10;99.90;;;;;;4962951;28;20492;-47
2022/06/03 11:07:23;;;;;;;6.07;2.10;;;28.20;99.90;;;;;;4963546;28;20553;-45
2022/06/03 11:09:57;;;;;;;3.23;2.00;;;28.40;99.90;;;;;;4963427;28;20793;-45
2022/06/03 11:12:25;;;;;;;1.90;1.70;;;28.50;99.90;;;;;;4960730;28;21076;-45
2022/06/03 11:14:51;;;;;;;3.43;1.93;;;28.60;99.90;;;;;;4963732;28;21252;-45
2022/06/03 11:17:21;;;;;;;5.20;1.80;;;28.60;99.90;;;;;;4967511;28;20439;-45
2022/06/03 11:19:50;;;;;;;5.03;1.70;;;28.60;99.90;;;;;;4967435;28;20217;-45
2022/06/03 11:22:18;;;;;;;5.00;2.00;;;28.60;99.90;;;;;;4966318;28;20429;-46
2022/06/03 11:25:18;;;;;;;3.53;2.07;;;28.70;99.90;;;;;;4959779;28;20437;-46
2022/06/03 11:28:07;;;;;;;2.70;1.80;;;28.90;99.90;;;;;;4957909;28;20449;-46
2022/06/03 11:30:55;;;;;;;2.70;2.30;;;28.90;99.90;;;;;;4965912;28;20507;-47
2022/06/03 11:33:39;;;;;;;2.60;1.87;;;28.90;99.90;;;;;;4957498;28;20426;-45
2022/06/03 11:36:14;;;;;;;5.27;2.00;;;29.20;99.90;;;;;;4968242;28;20871;-47
2022/06/03 11:38:49;;;;;;;5.03;1.98;;;29.10;99.90;;;;;;4967911;28;20784;-47
2022/06/03 11:41:22;;;;;;;4.00;2.33;;;28.90;99.90;;;;;;4965130;28;20192;-47
2022/06/03 11:43:55;;;;;;;3.53;2.10;;;28.80;99.90;;;;;;4960127;28;20436;-46
2022/06/03 11:46:41;;;;;;;3.10;2.30;;;28.70;99.90;;;;;;4966529;28;20413;-46
2022/06/03 11:49:08;;;;;;;2.20;1.83;;;28.80;99.90;;;;;;4959454;28;20425;-45
2022/06/03 11:51:36;;;;;;;3.67;2.17;;;28.80;99.90;;;;;;4964670;28;21013;-46
2022/06/03 11:54:02;;;;;;;2.30;2.00;;;28.80;99.90;;;;;;4957217;28;20994;-46
2022/06/03 11:56:33;;;;;;;1.87;1.70;;;28.50;99.90;;;;;;4965227;28;20193;-47
2022/06/03 11:59:10;;;;;;;4.60;2.33;;;28.40;99.90;;;;;;4963959;28;20465;-47
2022/06/03 12:01:49;;;;;;;3.53;1.70;;;29.00;99.90;;;;;;4965097;28;20432;-47
2022/06/03 12:04:48;;;;;;;10.43;1.83;;;29.10;99.90;;;;;;4965944;28;20432;-47
2022/06/03 12:07:27;;;;;;;2.20;2.00;;;29.30;99.90;;;;;;4958942;28;20451;-47
2022/06/03 12:10:11;;;;;;;3.47;2.30;;;29.60;99.90;;;;;;4962950;28;20440;-45
2022/06/03 12:15:30;;;;;;;3.30;1.90;;;30.20;99.90;;;;;;4964634;28;20434;-45
2022/06/03 12:17:57;;;;;;;2.90;2.20;;;30.30;99.90;;;;;;4962871;28;20437;-46
2022/06/03 12:20:32;;;;;;;4.03;2.17;;;30.10;99.90;;;;;;4967832;28;20208;-47
2022/06/03 12:23:18;;;;;;;5.43;2.50;;;29.80;99.90;;;;;;4962358;28;20432;-46
2022/06/03 12:26:05;;;;;;;5.43;2.07;;;29.80;99.90;;;;;;4969065;28;20433;-46
2022/06/03 12:28:37;;;;;;;5.13;1.80;;;29.50;99.90;;;;;;4961051;28;20428;-46
2022/06/03 12:31:19;;;;;;;3.73;1.97;;;29.70;99.90;;;;;;4958998;28;20429;-46
2022/06/03 12:34:03;;;;;;;2.17;1.80;;;29.90;99.90;;;;;;4965153;28;20420;-46
2022/06/03 12:36:53;;;;;;;8.80;2.07;;;29.60;99.90;;;;;;4968570;28;21116;-46
2022/06/03 12:39:18;;;;;;;2.10;1.63;;;29.90;99.90;;;;;;4964983;28;20554;-46
2022/06/03 12:41:44;;;;;;;1.60;1.50;;;29.80;99.90;;;;;;4959054;28;20906;-46
2022/06/03 12:44:32;;;;;;;3.07;1.90;;;30.00;99.90;;;;;;4957293;28;20213;-45
2022/06/03 12:47:25;;;;;;;2.57;1.60;;;29.70;99.90;;;;;;4961740;28;20631;-45
2022/06/03 12:49:55;;;;;;;4.63;1.83;;;29.60;99.90;;;;;;4958704;28;20450;-45
2022/06/03 12:52:21;;;;;;;3.83;1.73;;;29.30;99.90;;;;;;4954770;28;20519;-45
2022/06/03 12:54:59;;;;;;;2.10;1.80;;;29.40;99.90;;;;;;4968768;28;20536;-45
2022/06/03 12:57:52;;;;;;;4.30;1.97;;;29.40;99.90;;;;;;4963922;28;20215;-45
2022/06/03 13:00:18;;;;;;;2.90;2.00;;;29.50;99.90;;;;;;4957014;28;20472;-45
2022/06/03 13:02:59;;;;;;;3.17;1.50;;;29.60;99.90;;;;;;4965806;28;20792;-45
2022/06/03 13:05:37;;;;;;;3.87;1.50;;;29.30;99.90;;;;;;4966003;28;20187;-45
2022/06/03 13:08:06;;;;;;;2.50;1.70;;;29.30;99.90;;;;;;4962904;28;20431;-45
2022/06/03 13:10:52;;;;;;;1.87;1.60;;;29.40;99.90;;;;;;4960625;28;20426;-45
2022/06/03 13:13:28;;;;;;;5.70;1.50;;;29.70;99.90;;;;;;4966553;28;20463;-45
2022/06/03 13:16:14;;;;;;;2.00;1.50;;;29.60;99.90;;;;;;4959947;28;20420;-45
2022/06/03 13:18:43;;;;;;;2.77;1.80;;;29.10;99.90;;;;;;4959419;28;20480;-45
2022/06/03 13:21:08;;;;;;;3.37;1.73;;;29.10;99.90;;;;;;4958154;28;20475;-45
2022/06/03 13:23:57;;;;;;;2.40;1.73;;;29.10;99.90;;;;;;4961078;28;20479;-45
2022/06/03 13:26:23;;;;;;;4.33;1.80;;;29.10;99.90;;;;;;4963335;28;20295;-45
2022/06/03 13:28:53;;;;;;;1.70;1.23;;;29.20;99.90;;;;;;4971355;28;20586;-45
2022/06/03 13:31:23;;;;;;;2.70;1.53;;;29.10;99.90;;;;;;4966969;28;20189;-46
2022/06/03 13:34:10;;;;;;;1.60;1.50;;;29.10;99.90;;;;;;4966723;28;20439;-45
2022/06/03 13:36:50;;;;;;;2.60;1.67;;;29.40;99.90;;;;;;4972333;28;20432;-44
2022/06/03 13:39:28;;;;;;;6.30;1.77;;;29.50;99.90;;;;;;4981114;28;20491;-45
2022/06/03 13:44:51;;;;;;;1.50;1.37;;;29.50;99.90;;;;;;4970546;28;20411;-47
2022/06/03 13:47:20;;;;;;;2.50;1.40;;;29.50;99.90;;;;;;4968184;28;20494;-45
2022/06/03 13:50:00;;;;;;;2.13;1.60;;;29.60;99.90;;;;;;4967920;28;20514;-46
2022/06/03 13:52:28;;;;;;;1.97;1.77;;;29.60;99.90;;;;;;4962561;28;20451;-46
2022/06/03 13:55:33;;;;;;;4.20;1.43;;;29.60;99.90;;;;;;4969086;28;20763;-47
2022/06/03 13:58:09;;;;;;;2.80;1.60;;;29.40;99.90;;;;;;4960868;28;20431;-47
2022/06/03 14:00:51;;;;;;;2.33;1.60;;;29.30;99.90;;;;;;4963408;28;20444;-46
2022/06/03 14:03:20;;;;;;;1.43;1.33;;;29.40;99.90;;;;;;4966916;28;20425;-47
2022/06/03 14:05:51;;;;;;;2.77;1.80;;;29.30;99.90;;;;;;4960760;28;20931;-46
2022/06/03 14:08:34;;;;;;;1.70;1.40;;;29.40;99.90;;;;;;4970540;28;20549;-46
2022/06/03 14:11:13;;;;;;;5.43;1.97;;;29.40;99.90;;;;;;4965470;28;20808;-46
2022/06/03 14:13:57;;;;;;;3.27;2.00;;;29.00;99.90;;;;;;4964623;28;20431;-47
2022/06/03 14:16:49;;;;;;;2.90;2.10;;;29.00;99.90;;;;;;4967336;28;20424;-46
2022/06/03 14:19:32;;;;;;;3.93;1.60;;;28.70;99.90;;;;;;4967826;28;20480;-46
2022/06/03 14:22:03;;;;;;;3.30;2.03;;;28.90;99.90;;;;;;4966551;28;20922;-46